Portada
METAR-TAF:

METAR-TAF

Aeropuertos :

Base Aérea de Almagro

Almagro, España

latitud: 38-57-11N, longitud: 3-44-29W, altitud: 629 m

METAR: falta

Hora: 21:25 (20:25 UTC)

Pronóstico

El informe se hizo hace 6 horas y 25 minutos, a las 14:00 UTC
Pronóstico válido del 29 a las 15 UTC al 30 a las 15 UTC
Viento 4 kt del este-noreste
Visibilidad 10 km o más
Nubes dispersas a una altura de 4000 ft
Probabilidad 40% :
Temporalmente
del 29 a las 22 UTC al 30 a las 03 UTC
Visibilidad: 2000 m
Cielo nuboso a una altura de 700 ft
neblina
Probabilidad 30% :
Temporalmente
del 30 a las 01 UTC al 30 a las 11 UTC
Visibilidad: 0100 m
Cielo cubierto a una altura de 100 ft
niebla

TAF: LEAO 291400Z 2915/3015 06004KT 9999 SCT040 TX18/3015Z TN02/3006Z PROB40 TEMPO 2922/3003 2000 BR BKN007 PROB30 TEMPO 3001/3011 0100 FG OVC001

Observaciones y pronósticos meteorológicos de más de 4000 aeropuertos (mensajes METAR y TAF).

Los puntos amarillos y rojos representan las estaciones disponibles.

Ponga el ratón en el punto deseado para ver el nombre de la estación.

Haga clic para ver las observaciones y los pronósticos meteorológicos.

Para cambiar el mapa : haga clic en los botones verdes con una cruz de color negro para hacer un zoom, en el botón verde con un guión para alejar o en las flechas verdes para mapas adyacentes.


METAR-TAF: